createdAt,value
2023-05-09T00:02:32.057Z,10.36
2023-05-09T00:05:46.918Z,10.19
2023-05-09T00:08:55.751Z,10.34
2023-05-09T00:12:03.939Z,10.25
2023-05-09T00:15:12.731Z,10.30
2023-05-09T00:18:20.929Z,10.30
2023-05-09T00:21:35.903Z,10.32
2023-05-09T00:24:44.492Z,10.29
2023-05-09T00:27:58.904Z,10.26
2023-05-09T00:31:13.939Z,10.13
2023-05-09T00:34:22.620Z,10.06
2023-05-09T00:37:37.978Z,10.06
2023-05-09T00:40:46.557Z,10.07
2023-05-09T00:44:00.921Z,10.09
2023-05-09T00:47:09.576Z,10.10
2023-05-09T00:50:17.942Z,10.04
2023-05-09T00:53:32.894Z,9.93
2023-05-09T00:56:34.751Z,9.86
2023-05-09T00:59:56.935Z,9.80
2023-05-09T01:03:13.018Z,9.72
2023-05-09T01:06:30.498Z,9.80
2023-05-09T01:09:38.953Z,9.86
2023-05-09T01:13:46.911Z,9.85
2023-05-09T01:17:34.178Z,9.85
2023-05-09T01:21:05.890Z,9.82
2023-05-09T01:24:32.945Z,9.77
2023-05-09T01:28:00.003Z,9.66
2023-05-09T01:31:10.933Z,9.67
2023-05-09T01:34:29.926Z,9.69
2023-05-09T01:37:34.151Z,9.63
2023-05-09T01:40:49.906Z,9.62
2023-05-09T01:44:09.964Z,9.59
2023-05-09T01:47:25.931Z,9.59
2023-05-09T01:50:35.926Z,9.55
2023-05-09T01:53:53.930Z,9.54
2023-05-09T01:56:56.799Z,9.53
2023-05-09T02:00:12.938Z,9.37
2023-05-09T02:03:34.927Z,9.46
2023-05-09T02:06:43.940Z,9.46
2023-05-09T02:10:01.941Z,9.50
2023-05-09T02:13:10.994Z,9.46
2023-05-09T02:16:25.960Z,9.49
2023-05-09T02:19:41.897Z,9.45
2023-05-09T02:22:56.908Z,9.41
2023-05-09T02:26:12.946Z,9.42
2023-05-09T02:29:30.187Z,9.35
2023-05-09T02:32:46.935Z,9.38
2023-05-09T02:35:56.480Z,9.40
2023-05-09T02:39:10.938Z,9.35
2023-05-09T02:42:15.860Z,9.30
2023-05-09T02:45:30.911Z,9.31
2023-05-09T02:48:39.463Z,9.28
2023-05-09T02:51:53.912Z,9.19
2023-05-09T02:55:01.930Z,9.29
2023-05-09T02:58:16.952Z,9.26
2023-05-09T03:01:24.943Z,9.24
2023-05-09T03:04:46.905Z,9.17
2023-05-09T03:07:48.723Z,9.16
2023-05-09T03:11:03.897Z,9.16
2023-05-09T03:14:11.925Z,9.15
2023-05-09T03:17:20.458Z,9.19
2023-05-09T03:20:34.958Z,9.17
2023-05-09T03:23:43.509Z,9.12
2023-05-09T03:26:51.918Z,9.18
2023-05-09T03:30:06.932Z,9.17
2023-05-09T03:33:14.927Z,9.18
2023-05-09T03:36:29.917Z,9.19
2023-05-09T03:39:31.769Z,9.14
2023-05-09T03:42:46.908Z,9.16
2023-05-09T03:46:01.922Z,9.06
2023-05-09T03:49:03.759Z,9.16
2023-05-09T03:52:18.936Z,9.16
2023-05-09T03:55:27.504Z,9.17
2023-05-09T03:58:35.924Z,9.13
2023-05-09T04:01:57.956Z,9.02
2023-05-09T04:05:06.940Z,9.00
2023-05-09T04:08:21.938Z,9.08
2023-05-09T04:11:30.591Z,9.06
2023-05-09T04:14:48.779Z,8.83
2023-05-09T04:17:57.984Z,9.07
2023-05-09T04:21:06.534Z,9.01
2023-05-09T04:24:20.927Z,9.02
2023-05-09T04:27:29.685Z,9.07
2023-05-09T04:30:37.988Z,9.19
2023-05-09T04:33:52.951Z,9.25
2023-05-09T04:37:01.517Z,9.28
2023-05-09T04:40:10.001Z,9.37
2023-05-09T04:43:18.477Z,9.45
2023-05-09T04:46:32.966Z,9.44
2023-05-09T04:49:41.525Z,9.36
2023-05-09T04:52:55.939Z,9.46
2023-05-09T04:56:04.721Z,9.46
2023-05-09T04:59:19.970Z,9.40
2023-05-09T05:02:41.949Z,9.43
2023-05-09T05:05:56.925Z,9.50
2023-05-09T05:09:04.919Z,9.68
2023-05-09T05:12:13.469Z,9.63
2023-05-09T05:15:27.925Z,9.72
2023-05-09T05:18:35.932Z,9.77
2023-05-09T05:21:44.494Z,9.82
2023-05-09T05:24:53.201Z,9.87
2023-05-09T05:28:07.922Z,9.90
2023-05-09T05:31:09.856Z,10.04
2023-05-09T05:34:24.918Z,10.06
2023-05-09T05:37:33.923Z,10.27
2023-05-09T05:40:42.504Z,10.39
2023-05-09T05:43:56.964Z,10.49
2023-05-09T05:46:58.853Z,10.56
2023-05-09T05:50:14.937Z,10.51
2023-05-09T05:53:23.488Z,10.65
2023-05-09T05:56:37.970Z,10.76
2023-05-09T05:59:39.860Z,10.85
2023-05-09T06:03:02.008Z,10.96
2023-05-09T06:06:04.900Z,11.13
2023-05-09T06:09:19.922Z,11.30
2023-05-09T06:12:34.923Z,11.40
2023-05-09T06:15:49.923Z,11.74
2023-05-09T06:18:53.413Z,11.83
2023-05-09T06:22:10.921Z,11.94
2023-05-09T06:25:18.957Z,12.13
2023-05-09T06:28:27.529Z,12.20
2023-05-09T06:31:41.982Z,12.49
2023-05-09T06:34:49.952Z,12.58
2023-05-09T06:37:58.465Z,12.74
2023-05-09T06:41:06.940Z,12.87
2023-05-09T06:44:21.919Z,13.09
2023-05-09T06:47:30.541Z,13.12
2023-05-09T06:50:38.930Z,13.08
2023-05-09T06:53:47.477Z,13.24
2023-05-09T06:56:55.933Z,13.35
2023-05-09T07:00:11.942Z,13.64
2023-05-09T07:03:26.947Z,13.75
2023-05-09T07:06:41.956Z,14.01
2023-05-09T07:09:52.943Z,14.16
2023-05-09T07:13:15.958Z,14.61
2023-05-09T07:16:26.369Z,15.08
2023-05-09T07:19:41.289Z,14.91
2023-05-09T07:22:57.267Z,15.24
2023-05-09T07:26:05.929Z,15.26
2023-05-09T07:29:13.985Z,15.14
2023-05-09T07:32:28.981Z,15.52
2023-05-09T07:35:45.135Z,16.01
2023-05-09T07:38:59.914Z,15.96
2023-05-09T07:42:08.028Z,16.34
2023-05-09T07:45:23.938Z,16.29
2023-05-09T07:48:32.986Z,16.89
2023-05-09T07:51:41.520Z,17.15
2023-05-09T07:54:51.312Z,16.94
2023-05-09T07:58:05.934Z,17.26
2023-05-09T08:01:13.945Z,17.53
2023-05-09T08:04:29.289Z,17.50
2023-05-09T08:07:43.982Z,18.12
2023-05-09T08:10:46.154Z,18.22
2023-05-09T08:14:01.988Z,17.93
2023-05-09T08:17:16.993Z,18.39
2023-05-09T08:20:26.137Z,18.28
2023-05-09T08:23:34.816Z,18.37
2023-05-09T08:26:49.973Z,18.10
2023-05-09T08:29:58.807Z,18.58
2023-05-09T08:33:14.938Z,18.84
2023-05-09T08:36:29.978Z,18.56
2023-05-09T08:39:38.576Z,18.88
2023-05-09T08:42:46.952Z,19.38
2023-05-09T08:46:05.051Z,19.09
2023-05-09T08:49:20.972Z,19.07
2023-05-09T08:52:39.014Z,19.52
2023-05-09T08:55:53.972Z,19.34
2023-05-09T08:59:11.010Z,19.30
2023-05-09T09:02:20.950Z,19.02
2023-05-09T09:05:41.262Z,19.13
2023-05-09T09:08:59.011Z,19.95
2023-05-09T09:12:09.421Z,20.08
2023-05-09T09:15:21.959Z,19.53
2023-05-09T09:18:41.963Z,19.53
2023-05-09T09:21:59.951Z,19.63
2023-05-09T09:25:09.037Z,19.58
2023-05-09T09:28:17.852Z,19.74
2023-05-09T09:31:37.980Z,19.99
2023-05-09T09:34:48.401Z,19.49
2023-05-09T09:37:59.735Z,19.64
2023-05-09T09:41:14.950Z,20.56
2023-05-09T09:44:23.607Z,20.46
2023-05-09T09:47:39.047Z,20.58
2023-05-09T09:50:41.011Z,20.81
2023-05-09T09:53:55.943Z,20.77
2023-05-09T09:56:57.750Z,19.52
2023-05-09T10:00:15.107Z,18.88
2023-05-09T10:03:41.487Z,19.17
2023-05-09T10:07:01.955Z,19.77
2023-05-09T10:10:12.277Z,20.11
2023-05-09T10:13:27.004Z,20.96
2023-05-09T10:16:42.756Z,20.85
2023-05-09T10:20:01.012Z,20.47
2023-05-09T10:23:10.254Z,20.13
2023-05-09T10:26:30.962Z,19.24
2023-05-09T10:29:58.128Z,19.98
2023-05-09T10:33:08.172Z,20.51
2023-05-09T10:36:27.991Z,19.84
2023-05-09T10:39:43.956Z,20.00
2023-05-09T10:42:52.656Z,20.16
2023-05-09T10:46:01.975Z,19.85
2023-05-09T10:49:10.892Z,20.60
2023-05-09T10:52:18.961Z,20.70
2023-05-09T10:55:55.003Z,20.40
2023-05-09T10:59:15.374Z,19.62
2023-05-09T11:02:30.592Z,19.74
2023-05-09T11:05:45.981Z,19.68
2023-05-09T11:08:54.552Z,20.49
2023-05-09T11:12:12.009Z,20.51
2023-05-09T11:15:26.974Z,20.37
2023-05-09T11:18:36.027Z,19.97
2023-05-09T11:22:01.181Z,20.57
2023-05-09T11:25:15.305Z,21.41
2023-05-09T11:28:38.990Z,21.04
2023-05-09T11:32:07.383Z,20.86
2023-05-09T11:35:27.053Z,21.47
2023-05-09T11:38:50.316Z,20.29
2023-05-09T11:41:58.727Z,19.62
2023-05-09T11:45:15.204Z,19.48
2023-05-09T11:48:21.873Z,19.00
2023-05-09T11:51:36.968Z,19.90
2023-05-09T11:54:39.648Z,20.29
2023-05-09T11:57:57.062Z,20.40
2023-05-09T12:01:19.991Z,19.71
2023-05-09T12:04:39.249Z,20.00
2023-05-09T12:07:48.269Z,19.60
2023-05-09T12:10:57.013Z,19.99
2023-05-09T12:14:05.559Z,19.32
2023-05-09T12:17:19.972Z,20.28
2023-05-09T12:20:35.054Z,20.74
2023-05-09T12:23:43.976Z,21.21
2023-05-09T12:27:01.025Z,21.41
2023-05-09T12:30:11.218Z,21.14
2023-05-09T12:33:40.031Z,20.71
2023-05-09T12:36:45.036Z,20.05
2023-05-09T12:40:19.069Z,19.76
2023-05-09T12:43:30.976Z,19.97
2023-05-09T12:46:40.062Z,20.00
2023-05-09T12:49:51.642Z,19.58
2023-05-09T12:53:03.360Z,19.09
2023-05-09T12:56:21.128Z,19.24
2023-05-09T12:59:32.652Z,19.40
2023-05-09T13:02:44.055Z,20.11
2023-05-09T13:06:07.977Z,20.80
2023-05-09T13:09:17.612Z,20.98
2023-05-09T13:12:31.995Z,20.57
2023-05-09T13:15:46.988Z,19.83
2023-05-09T13:19:02.000Z,19.80
2023-05-09T13:22:17.011Z,20.64
2023-05-09T13:25:18.898Z,20.10
2023-05-09T13:28:33.988Z,20.13
2023-05-09T13:31:48.991Z,20.31
2023-05-09T13:35:03.995Z,21.17
2023-05-09T13:38:12.560Z,20.16
2023-05-09T13:41:26.983Z,19.74
2023-05-09T13:44:35.003Z,19.43
2023-05-09T13:47:50.027Z,19.57
2023-05-09T13:50:58.010Z,19.78
2023-05-09T13:54:06.852Z,19.69
2023-05-09T13:57:15.005Z,19.73
2023-05-09T14:00:23.837Z,19.68
2023-05-09T14:03:46.071Z,19.35
2023-05-09T14:07:02.083Z,19.27
2023-05-09T14:13:22.191Z,19.80
2023-05-09T14:16:24.241Z,20.23
2023-05-09T14:19:38.986Z,20.52
2023-05-09T14:22:54.053Z,20.15
2023-05-09T14:26:02.943Z,19.54
2023-05-09T14:29:12.064Z,19.23
2023-05-09T14:32:27.026Z,19.41
2023-05-09T14:35:35.822Z,19.36
2023-05-09T14:38:45.006Z,19.18
2023-05-09T14:41:59.999Z,19.06
2023-05-09T14:45:01.899Z,19.29
2023-05-09T14:48:17.061Z,19.80
2023-05-09T14:51:31.997Z,19.94
2023-05-09T14:54:47.016Z,20.26
2023-05-09T14:58:02.022Z,19.74
2023-05-09T15:01:11.054Z,20.03
2023-05-09T15:04:26.364Z,20.04
2023-05-09T15:07:41.997Z,20.00
2023-05-09T15:10:57.011Z,20.23
2023-05-09T15:14:05.006Z,20.17
2023-05-09T15:17:13.695Z,20.15
2023-05-09T15:20:27.991Z,20.24
2023-05-09T15:23:36.696Z,20.20
2023-05-09T15:26:50.986Z,19.88
2023-05-09T15:30:00.063Z,19.73
2023-05-09T15:33:15.006Z,19.43
2023-05-09T15:36:30.139Z,19.29
2023-05-09T15:39:46.022Z,19.11
2023-05-09T15:43:01.085Z,19.01
2023-05-09T15:46:09.633Z,18.96
2023-05-09T15:49:18.023Z,18.93
2023-05-09T15:52:33.034Z,18.70
2023-05-09T15:55:41.118Z,18.87
2023-05-09T15:58:56.012Z,19.08
2023-05-09T16:02:04.163Z,19.31
2023-05-09T16:05:26.055Z,19.09
2023-05-09T16:08:34.619Z,18.83
2023-05-09T16:11:49.024Z,18.46
2023-05-09T16:14:57.711Z,18.47
2023-05-09T16:18:06.029Z,18.23
2023-05-09T16:21:14.641Z,18.49
2023-05-09T16:24:29.070Z,18.38
2023-05-09T16:27:45.051Z,18.37
2023-05-09T16:31:00.107Z,18.42
2023-05-09T16:34:08.091Z,18.39
2023-05-09T16:37:16.756Z,18.26
2023-05-09T16:40:25.387Z,18.22
2023-05-09T16:43:33.623Z,18.25
2023-05-09T16:46:48.030Z,18.24
2023-05-09T16:49:50.322Z,18.12
2023-05-09T16:53:05.049Z,18.15
2023-05-09T16:56:13.037Z,18.10
2023-05-09T16:59:21.609Z,18.13
2023-05-09T17:02:30.073Z,18.01
2023-05-09T17:05:45.293Z,17.95
2023-05-09T17:09:00.034Z,17.90
2023-05-09T17:12:08.093Z,17.73
2023-05-09T17:15:16.975Z,17.65
2023-05-09T17:18:37.025Z,17.62
2023-05-09T17:21:53.029Z,17.67
2023-05-09T17:25:08.045Z,17.70
2023-05-09T17:28:16.541Z,17.68
2023-05-09T17:31:31.024Z,17.54
2023-05-09T17:34:46.055Z,17.49
2023-05-09T17:38:01.028Z,17.50
2023-05-09T17:41:02.968Z,17.37
2023-05-09T17:44:19.024Z,17.35
2023-05-09T17:47:27.117Z,17.28
2023-05-09T17:50:35.615Z,17.20
2023-05-09T17:53:50.036Z,17.18
2023-05-09T17:57:02.036Z,17.10
2023-05-09T18:00:18.137Z,17.04
2023-05-09T18:03:36.175Z,16.98
2023-05-09T18:06:56.048Z,16.87
2023-05-09T18:10:12.022Z,16.78
2023-05-09T18:13:20.082Z,16.69
2023-05-09T18:16:36.123Z,16.59
2023-05-09T18:19:38.202Z,16.48
2023-05-09T18:22:54.051Z,16.56
2023-05-09T18:26:02.574Z,16.46
2023-05-09T18:29:11.046Z,16.37
2023-05-09T18:32:26.177Z,16.33
2023-05-09T18:35:41.080Z,16.26
2023-05-09T18:38:43.072Z,16.18
2023-05-09T18:41:58.045Z,16.10
2023-05-09T18:45:06.071Z,16.07
2023-05-09T18:48:17.494Z,15.89
2023-05-09T18:51:33.063Z,15.88
2023-05-09T18:54:41.888Z,15.84
2023-05-09T18:57:50.492Z,15.79
2023-05-09T19:01:06.075Z,15.68
2023-05-09T19:04:15.792Z,15.72
2023-05-09T19:07:32.017Z,15.71
2023-05-09T19:10:35.396Z,15.70
2023-05-09T19:13:51.120Z,15.60
2023-05-09T19:17:07.434Z,15.62
2023-05-09T19:20:17.365Z,15.59
2023-05-09T19:23:27.649Z,15.53
2023-05-09T19:26:37.812Z,15.47
2023-05-09T19:29:49.687Z,15.42
2023-05-09T19:33:06.596Z,15.35
2023-05-09T19:36:16.286Z,15.29
2023-05-09T19:39:26.479Z,15.24
2023-05-09T19:42:37.794Z,15.20
2023-05-09T19:45:47.627Z,15.03
2023-05-09T19:49:03.314Z,15.13
2023-05-09T19:52:19.457Z,15.08
2023-05-09T19:55:22.610Z,15.04
2023-05-09T19:58:38.086Z,14.99
2023-05-09T20:01:40.511Z,14.93
2023-05-09T20:05:02.058Z,14.88
2023-05-09T20:08:17.702Z,14.88
2023-05-09T20:11:20.265Z,14.85
2023-05-09T20:14:35.622Z,14.80
2023-05-09T20:17:44.692Z,14.76
2023-05-09T20:21:00.637Z,14.71
2023-05-09T20:24:15.766Z,14.57
2023-05-09T20:27:31.666Z,14.52
2023-05-09T20:30:40.586Z,14.52
2023-05-09T20:33:55.673Z,14.52
2023-05-09T20:37:11.581Z,14.49
2023-05-09T20:40:14.439Z,14.46
2023-05-09T20:43:29.566Z,14.47
2023-05-09T20:46:38.484Z,14.42
2023-05-09T20:49:46.944Z,14.40
2023-05-09T20:53:02.166Z,14.23
2023-05-09T20:56:11.016Z,14.31
2023-05-09T20:59:26.021Z,14.23
2023-05-09T21:02:35.084Z,14.12
2023-05-09T21:05:50.508Z,14.11
2023-05-09T21:09:05.029Z,14.09
2023-05-09T21:12:20.053Z,14.02
2023-05-09T21:15:28.542Z,13.96
2023-05-09T21:18:43.039Z,13.98
2023-05-09T21:21:51.607Z,13.97
2023-05-09T21:25:00.019Z,13.96
2023-05-09T21:28:15.047Z,13.97
2023-05-09T21:31:23.682Z,13.99
2023-05-09T21:34:38.028Z,13.97
2023-05-09T21:37:52.986Z,14.03
2023-05-09T21:41:08.035Z,14.04
2023-05-09T21:44:09.928Z,14.01
2023-05-09T21:47:25.159Z,14.02
2023-05-09T21:50:34.010Z,14.06
2023-05-09T21:53:42.627Z,14.03
2023-05-09T21:56:51.007Z,14.00
2023-05-09T21:59:59.650Z,14.02
2023-05-09T22:03:08.105Z,13.98
2023-05-09T22:06:30.037Z,14.00
2023-05-09T22:09:38.572Z,14.01
2023-05-09T22:12:47.056Z,13.98
2023-05-09T22:15:55.697Z,13.95
2023-05-09T22:19:04.045Z,14.03
2023-05-09T22:22:13.122Z,14.02
2023-05-09T22:25:21.027Z,14.04
2023-05-09T22:28:29.585Z,14.10
2023-05-09T22:31:44.071Z,14.06
2023-05-09T22:34:49.056Z,14.06
2023-05-09T22:38:04.039Z,14.07
2023-05-09T22:41:14.222Z,14.07
2023-05-09T22:44:22.086Z,14.08
2023-05-09T22:47:30.701Z,14.07
2023-05-09T22:50:39.088Z,14.04
2023-05-09T22:54:01.069Z,14.11
2023-05-09T22:57:09.828Z,14.07
2023-05-09T23:00:25.069Z,14.02
2023-05-09T23:03:33.110Z,14.05
2023-05-09T23:06:48.318Z,13.97
2023-05-09T23:09:57.060Z,13.84
2023-05-09T23:13:05.763Z,13.89
2023-05-09T23:16:21.113Z,13.90
2023-05-09T23:19:23.166Z,13.92
2023-05-09T23:22:38.088Z,13.80
2023-05-09T23:25:46.078Z,13.83
2023-05-09T23:29:01.130Z,13.86
2023-05-09T23:32:03.010Z,13.83
2023-05-09T23:35:18.056Z,13.76
2023-05-09T23:38:19.995Z,13.75
2023-05-09T23:41:35.080Z,13.70
2023-05-09T23:44:43.075Z,13.65
2023-05-09T23:47:58.103Z,13.63
2023-05-09T23:51:13.067Z,13.55
2023-05-09T23:54:14.946Z,13.50
2023-05-09T23:57:30.126Z,13.35
